Time;durP1;ratioP1;P1;durP2;ratioP2;P2;SDS_P1;SDS_P2;PMS_P1;PMS_P2;Temp;Humidity;BMP_temperature;BMP_pressure;BME280_temperature;BME280_humidity;BME280_pressure;Samples;Min_cycle;Max_cycle;Signal;HPM_P1;HPM_P2
2022/03/01 00:01:50;;;;;;;10.20;4.67;;;-3.10;96.30;;;;;;4955931;29;20198;-74
2022/03/01 00:04:15;;;;;;;6.50;4.20;;;-3.20;96.30;;;;;;4955894;29;20199;-74
2022/03/01 00:06:41;;;;;;;8.60;4.63;;;-3.10;96.30;;;;;;4955855;29;20195;-75
2022/03/01 00:09:06;;;;;;;13.20;4.93;;;-3.20;96.30;;;;;;4955662;29;20171;-73
2022/03/01 00:11:32;;;;;;;5.33;3.80;;;-3.10;96.30;;;;;;4955746;29;20681;-74
2022/03/01 00:13:58;;;;;;;11.77;5.20;;;-3.20;96.30;;;;;;4955810;29;20181;-74
2022/03/01 00:16:24;;;;;;;12.23;5.63;;;-3.20;96.30;;;;;;4955684;29;20928;-74
2022/03/01 00:18:50;;;;;;;9.47;4.40;;;-3.20;96.30;;;;;;4955480;29;20462;-75
2022/03/01 00:21:16;;;;;;;7.50;4.93;;;-3.20;96.30;;;;;;4938332;29;20704;-74
2022/03/01 00:23:41;;;;;;;10.73;5.80;;;-3.20;96.30;;;;;;4955481;29;20207;-75
2022/03/01 00:26:07;;;;;;;14.23;4.73;;;-3.20;96.30;;;;;;4938363;29;20210;-74
2022/03/01 00:28:32;;;;;;;9.10;4.53;;;-3.20;96.30;;;;;;4938032;29;20183;-74
2022/03/01 00:30:58;;;;;;;9.13;4.97;;;-3.20;96.30;;;;;;4955435;29;20194;-74
2022/03/01 00:33:23;;;;;;;9.10;5.50;;;-3.20;96.30;;;;;;4955352;29;20652;-74
2022/03/01 00:35:49;;;;;;;9.47;5.30;;;-3.30;96.30;;;;;;4955321;29;20258;-74
2022/03/01 00:38:14;;;;;;;8.60;4.83;;;-3.40;96.30;;;;;;4955038;29;20181;-74
2022/03/01 00:40:40;;;;;;;15.23;6.00;;;-3.40;96.30;;;;;;4955174;29;20230;-75
2022/03/01 00:43:05;;;;;;;9.13;4.90;;;-3.40;96.30;;;;;;4955175;29;20202;-74
2022/03/01 00:45:31;;;;;;;6.60;3.10;;;-3.50;96.30;;;;;;4955156;29;20667;-74
2022/03/01 00:47:56;;;;;;;9.93;4.80;;;-3.50;96.30;;;;;;4954755;29;20175;-75
2022/03/01 00:50:22;;;;;;;10.70;5.10;;;-3.50;96.30;;;;;;4954112;28;20194;-74
2022/03/01 00:52:47;;;;;;;9.47;4.90;;;-3.60;96.30;;;;;;4955032;29;20179;-74
2022/03/01 00:55:13;;;;;;;10.20;5.47;;;-3.60;96.30;;;;;;4954972;29;20171;-75
2022/03/01 00:57:38;;;;;;;10.47;5.63;;;-3.60;96.30;;;;;;4954721;29;20248;-76
2022/03/01 05:00:44;;;;;;;9.60;5.70;;;-5.00;96.30;;;;;;5789619;23;20502;-74
2022/03/01 05:03:09;;;;;;;17.40;10.57;;;-5.20;96.30;;;;;;4970724;28;20457;-75
2022/03/01 05:05:35;;;;;;;18.93;7.90;;;-5.10;96.30;;;;;;4972915;28;20183;-76
2022/03/01 05:08:00;;;;;;;10.20;5.50;;;-5.10;96.30;;;;;;4956466;28;20230;-75
2022/03/01 05:10:26;;;;;;;12.53;6.60;;;-5.10;96.30;;;;;;4971679;28;20185;-76
2022/03/01 05:12:54;;;;;;;11.07;6.00;;;-5.20;96.30;;;;;;4954800;29;20231;-75
2022/03/01 05:15:21;;;;;;;15.70;8.03;;;-5.10;96.30;;;;;;4957312;29;20554;-75
2022/03/01 05:17:48;;;;;;;32.37;19.13;;;-5.00;96.30;;;;;;4962666;29;20513;-75
2022/03/01 05:20:15;;;;;;;16.53;6.67;;;-5.00;96.30;;;;;;4938170;28;20938;-73
2022/03/01 05:22:42;;;;;;;6.80;4.60;;;-5.00;96.30;;;;;;4937423;29;20813;-73
2022/03/01 05:25:09;;;;;;;11.50;8.43;;;-4.70;96.30;;;;;;4954454;29;20964;-74
2022/03/01 05:27:39;;;;;;;17.90;7.97;;;-4.70;96.30;;;;;;4954212;29;20415;-75
2022/03/01 05:30:07;;;;;;;24.40;14.10;;;-4.60;96.30;;;;;;4937176;29;20438;-76
2022/03/01 05:32:37;;;;;;;54.07;28.37;;;-4.50;96.30;;;;;;4954459;28;21059;-74
2022/03/01 05:35:04;;;;;;;46.13;29.23;;;-4.40;96.30;;;;;;4954049;28;20411;-75
2022/03/01 05:37:30;;;;;;;55.80;32.17;;;-4.50;96.30;;;;;;4936817;29;20674;-75
2022/03/01 05:39:55;;;;;;;14.33;8.67;;;-4.60;96.30;;;;;;4954209;29;20465;-75
2022/03/01 05:42:21;;;;;;;14.47;7.87;;;-4.50;96.30;;;;;;4954265;28;20246;-76
2022/03/01 05:44:46;;;;;;;24.50;9.40;;;-4.40;96.30;;;;;;4936919;29;20215;-76
2022/03/01 05:47:12;;;;;;;15.57;9.03;;;-4.40;96.30;;;;;;4937093;29;20640;-76
2022/03/01 05:49:38;;;;;;;48.23;23.67;;;-4.40;96.30;;;;;;4953795;29;20249;-75
2022/03/01 05:52:04;;;;;;;49.67;21.57;;;-4.50;96.30;;;;;;4954147;28;20330;-75
2022/03/01 05:54:30;;;;;;;48.13;23.10;;;-4.60;96.30;;;;;;4954072;29;20473;-76
2022/03/01 05:56:55;;;;;;;93.23;42.50;;;-4.60;96.30;;;;;;4954186;29;20411;-75
2022/03/01 05:59:21;;;;;;;81.17;37.07;;;-4.50;96.30;;;;;;4953372;29;20183;-76
2022/03/01 06:01:46;;;;;;;28.87;15.30;;;-4.50;96.30;;;;;;4953995;28;20210;-75
2022/03/01 06:04:12;;;;;;;15.50;8.13;;;-4.40;96.30;;;;;;4954095;29;20255;-75
2022/03/01 06:06:37;;;;;;;15.37;8.90;;;-4.20;96.30;;;;;;4936804;29;20214;-75
2022/03/01 06:09:03;;;;;;;12.03;6.20;;;-3.80;96.30;;;;;;4953351;29;20218;-76
2022/03/01 06:11:28;;;;;;;12.13;6.77;;;-3.50;96.30;;;;;;4953738;28;20549;-76
2022/03/01 06:13:54;;;;;;;8.87;5.07;;;-3.20;96.30;;;;;;4936738;29;20214;-77
2022/03/01 06:16:19;;;;;;;12.00;7.47;;;-2.70;96.30;;;;;;4953900;29;20193;-76
2022/03/01 06:18:45;;;;;;;13.03;8.10;;;-2.50;96.30;;;;;;4953360;29;20590;-75
2022/03/01 06:21:11;;;;;;;10.43;6.07;;;-2.20;96.30;;;;;;4953788;28;20205;-75
2022/03/01 06:23:36;;;;;;;11.90;6.77;;;-1.90;96.30;;;;;;4936598;29;20229;-77
2022/03/01 06:26:02;;;;;;;13.97;5.77;;;-1.80;96.30;;;;;;4952523;29;20187;-77
2022/03/01 06:28:28;;;;;;;8.63;5.83;;;-1.60;96.30;;;;;;4934033;29;20234;-78
2022/03/01 06:30:53;;;;;;;10.70;6.13;;;-1.50;96.30;;;;;;4934544;29;20200;-77
2022/03/01 06:33:19;;;;;;;12.50;6.40;;;-1.30;96.30;;;;;;4933736;29;20645;-77
2022/03/01 06:35:46;;;;;;;8.70;5.73;;;-1.20;96.30;;;;;;4917508;29;20692;-77
2022/03/01 06:38:11;;;;;;;9.13;5.63;;;-0.80;96.30;;;;;;4916976;29;20296;-76
2022/03/01 06:40:37;;;;;;;11.63;5.90;;;-0.40;96.30;;;;;;4934630;29;20448;-77
2022/03/01 06:43:03;;;;;;;8.53;5.43;;;-0.40;96.30;;;;;;4934344;29;20176;-76
2022/03/01 06:45:30;;;;;;;9.57;5.60;;;0.20;96.30;;;;;;4934424;29;20180;-77
2022/03/01 06:47:55;;;;;;;8.20;4.00;;;0.70;96.30;;;;;;4935047;29;21012;-75
2022/03/01 06:50:21;;;;;;;10.87;6.13;;;0.60;96.30;;;;;;4921037;29;20415;-75
2022/03/01 06:52:47;;;;;;;8.67;5.60;;;0.80;96.30;;;;;;4921056;29;20207;-76
2022/03/01 06:55:13;;;;;;;16.30;7.87;;;1.60;95.20;;;;;;4920907;29;20195;-75
2022/03/01 06:57:40;;;;;;;14.23;7.80;;;1.80;94.10;;;;;;4919815;29;20179;-75
2022/03/01 07:00:11;;;;;;;20.43;10.13;;;1.80;94.20;;;;;;4937823;29;20913;-75
2022/03/01 07:02:40;;;;;;;13.90;7.07;;;2.20;93.20;;;;;;4937971;29;20427;-76
2022/03/01 07:05:07;;;;;;;45.37;16.13;;;2.80;91.40;;;;;;4937897;29;20487;-75
2022/03/01 07:07:33;;;;;;;70.70;24.57;;;2.90;91.30;;;;;;4937174;29;20412;-75
2022/03/01 07:09:58;;;;;;;52.53;17.20;;;3.60;88.10;;;;;;4937751;29;20422;-76
2022/03/01 07:12:24;;;;;;;12.60;5.80;;;4.10;86.40;;;;;;4937610;29;20242;-73
2022/03/01 07:14:49;;;;;;;30.93;15.90;;;4.70;85.00;;;;;;4939906;29;20917;-72
2022/03/01 07:17:17;;;;;;;12.20;7.13;;;6.20;83.60;;;;;;4931815;29;20207;-73
2022/03/01 07:19:43;;;;;;;9.00;6.10;;;6.50;78.60;;;;;;4931620;29;20606;-73
2022/03/01 07:22:08;;;;;;;10.37;5.53;;;6.70;78.60;;;;;;4936448;29;20443;-74
2022/03/01 07:24:34;;;;;;;10.40;5.50;;;6.90;76.60;;;;;;4943300;29;20775;-73
2022/03/01 07:27:00;;;;;;;10.70;6.87;;;6.40;77.30;;;;;;4936896;29;20258;-75
2022/03/01 07:29:25;;;;;;;9.87;5.90;;;6.50;77.20;;;;;;4938527;29;20649;-73
2022/03/01 07:31:52;;;;;;;13.93;5.90;;;6.10;79.00;;;;;;4944144;28;20200;-76
2022/03/01 07:34:18;;;;;;;10.17;6.40;;;5.30;79.90;;;;;;4941037;29;20175;-75
2022/03/01 07:36:43;;;;;;;8.63;5.43;;;4.10;82.70;;;;;;4947161;29;20437;-74
2022/03/01 07:39:09;;;;;;;10.83;5.67;;;3.80;83.60;;;;;;4950112;29;20195;-74
2022/03/01 07:41:35;;;;;;;11.70;5.50;;;3.00;86.20;;;;;;4942005;28;20207;-73
2022/03/01 07:44:00;;;;;;;7.30;4.63;;;2.10;88.20;;;;;;4930486;29;20688;-73
2022/03/01 07:46:26;;;;;;;12.63;5.70;;;1.00;92.10;;;;;;4945563;29;20373;-73
2022/03/01 07:48:51;;;;;;;11.90;5.97;;;0.60;95.40;;;;;;4919794;29;20244;-75
2022/03/01 07:51:17;;;;;;;15.23;6.13;;;0.40;96.30;;;;;;4937003;29;20200;-73
2022/03/01 07:53:43;;;;;;;10.97;5.70;;;0.40;96.30;;;;;;4955856;29;20189;-73
2022/03/01 07:56:08;;;;;;;7.10;4.33;;;0.20;96.30;;;;;;4956107;29;20218;-73
2022/03/01 07:58:34;;;;;;;10.23;5.23;;;0.30;96.30;;;;;;4955427;28;20195;-72
2022/03/01 08:00:59;;;;;;;9.10;5.43;;;0.20;96.30;;;;;;4955860;28;20397;-75
2022/03/01 08:03:25;;;;;;;9.97;5.90;;;0.20;96.30;;;;;;4929130;29;20199;-73
2022/03/01 08:05:51;;;;;;;7.27;5.20;;;0.10;96.30;;;;;;4955155;29;20202;-73
2022/03/01 08:08:17;;;;;;;10.57;5.03;;;0.20;96.30;;;;;;4953778;29;20175;-74
2022/03/01 08:10:42;;;;;;;8.40;5.23;;;0.20;96.30;;;;;;4922727;29;21007;-73
2022/03/01 08:13:08;;;;;;;19.33;5.77;;;0.30;96.30;;;;;;4904050;29;20599;-73
2022/03/01 08:15:33;;;;;;;10.03;5.63;;;0.30;96.30;;;;;;4919025;29;20990;-73
2022/03/01 08:17:59;;;;;;;9.40;5.60;;;0.30;96.30;;;;;;4935937;29;20180;-73
2022/03/01 08:20:26;;;;;;;13.43;5.30;;;0.30;96.30;;;;;;4947730;29;20176;-74
2022/03/01 08:22:52;;;;;;;6.80;3.97;;;0.30;96.30;;;;;;4936519;29;21023;-74
2022/03/01 08:25:18;;;;;;;10.40;5.27;;;0.30;96.30;;;;;;4939298;29;20818;-74
2022/03/01 08:27:44;;;;;;;8.13;3.73;;;0.40;96.30;;;;;;4955609;29;20422;-76
2022/03/01 08:30:11;;;;;;;9.80;4.57;;;0.40;96.30;;;;;;4938650;29;20441;-75
2022/03/01 08:32:37;;;;;;;13.60;5.87;;;0.40;96.30;;;;;;4936679;29;20434;-76
2022/03/01 08:35:03;;;;;;;15.67;7.67;;;0.50;96.30;;;;;;4928028;29;20426;-75
2022/03/01 08:37:28;;;;;;;14.87;6.90;;;0.60;96.30;;;;;;4936791;29;20615;-75
2022/03/01 08:39:54;;;;;;;8.80;4.23;;;0.60;96.30;;;;;;4954332;29;20440;-74
2022/03/01 08:42:19;;;;;;;8.80;3.93;;;0.60;96.10;;;;;;4954618;28;20237;-74
2022/03/01 08:44:45;;;;;;;9.47;5.37;;;0.70;96.30;;;;;;4937941;29;20941;-75
2022/03/01 08:47:11;;;;;;;7.40;5.00;;;0.70;95.40;;;;;;4937517;29;20179;-75
2022/03/01 08:49:36;;;;;;;5.20;3.23;;;0.70;94.80;;;;;;4937359;29;20175;-75
2022/03/01 08:52:03;;;;;;;8.33;3.73;;;0.80;95.40;;;;;;4954463;28;20671;-75
2022/03/01 08:54:28;;;;;;;10.00;3.67;;;0.70;94.50;;;;;;4954437;29;20182;-75
2022/03/01 08:56:54;;;;;;;8.03;3.60;;;0.90;94.90;;;;;;4955747;29;20924;-75
2022/03/01 08:59:19;;;;;;;7.30;4.40;;;0.90;93.40;;;;;;4929928;29;20183;-75
2022/03/01 09:01:45;;;;;;;6.10;4.00;;;1.00;93.30;;;;;;4950624;28;20297;-76
2022/03/01 09:04:11;;;;;;;7.80;3.97;;;1.00;92.20;;;;;;4937864;29;20683;-75
2022/03/01 09:06:36;;;;;;;4.80;2.57;;;1.10;93.50;;;;;;4938126;29;20874;-75
2022/03/01 09:09:02;;;;;;;3.50;2.77;;;1.10;92.20;;;;;;4931250;29;20174;-76
2022/03/01 09:11:28;;;;;;;6.57;3.73;;;1.30;93.00;;;;;;4933052;28;20199;-75
2022/03/01 09:13:53;;;;;;;5.13;3.10;;;1.30;92.80;;;;;;4902274;29;22246;-74
2022/03/01 09:16:19;;;;;;;6.37;3.50;;;1.50;92.20;;;;;;4929693;29;20171;-75
2022/03/01 09:18:45;;;;;;;6.37;3.67;;;1.80;91.60;;;;;;4932306;29;20205;-75
2022/03/01 09:21:11;;;;;;;6.60;3.00;;;2.60;88.20;;;;;;4921670;29;20238;-75
2022/03/01 09:23:37;;;;;;;7.33;3.30;;;2.70;87.70;;;;;;4932370;29;20458;-75
2022/03/01 09:26:03;;;;;;;6.10;2.73;;;3.40;85.00;;;;;;4954382;29;20709;-74
2022/03/01 09:28:28;;;;;;;7.30;3.63;;;3.60;83.50;;;;;;4936915;29;20274;-74
2022/03/01 09:30:54;;;;;;;8.63;4.10;;;3.70;83.50;;;;;;4953669;29;20201;-74
2022/03/01 09:33:19;;;;;;;7.70;3.87;;;4.60;82.10;;;;;;4954338;28;20182;-74
2022/03/01 09:35:46;;;;;;;7.30;4.10;;;4.40;81.40;;;;;;4953909;29;20186;-74
2022/03/01 09:38:12;;;;;;;7.50;3.00;;;4.30;81.10;;;;;;4936764;29;20203;-74
2022/03/01 09:40:37;;;;;;;5.03;3.17;;;4.20;80.90;;;;;;4953302;28;20480;-75
2022/03/01 09:43:03;;;;;;;9.23;4.30;;;4.00;81.30;;;;;;4954005;29;20857;-74
2022/03/01 09:45:29;;;;;;;5.90;3.53;;;4.60;80.30;;;;;;4953981;29;20262;-74
2022/03/01 09:47:55;;;;;;;4.00;2.70;;;4.60;80.40;;;;;;4953800;29;20219;-74
2022/03/01 09:50:27;;;;;;;5.80;3.97;;;4.70;80.40;;;;;;4953354;29;20181;-74
2022/03/01 09:52:57;;;;;;;6.23;3.17;;;4.80;79.70;;;;;;4953921;29;20218;-74
2022/03/01 09:55:23;;;;;;;9.90;4.10;;;4.90;79.30;;;;;;4948083;28;20423;-74
2022/03/01 09:57:48;;;;;;;7.93;3.57;;;5.40;80.00;;;;;;4953700;29;20786;-74
2022/03/01 10:00:14;;;;;;;6.17;3.60;;;5.20;77.40;;;;;;4937620;29;20259;-73
2022/03/01 10:02:43;;;;;;;5.13;3.27;;;4.90;79.30;;;;;;4940434;29;20209;-67
2022/03/01 10:05:09;;;;;;;6.83;3.87;;;4.60;78.90;;;;;;4953426;29;20206;-68
2022/03/01 10:07:34;;;;;;;7.13;4.20;;;5.10;79.10;;;;;;4953090;29;20898;-69
2022/03/01 10:10:16;;;;;;;7.60;3.90;;;5.60;79.30;;;;;;4953477;29;20491;-67
2022/03/01 10:12:43;;;;;;;6.40;3.70;;;6.20;77.40;;;;;;4953813;29;20177;-68
2022/03/01 10:15:10;;;;;;;6.80;3.80;;;6.30;77.70;;;;;;4953410;29;21090;-68
2022/03/01 10:17:41;;;;;;;8.60;3.97;;;6.50;75.80;;;;;;4938721;29;20609;-68
2022/03/01 10:20:18;;;;;;;6.03;3.60;;;6.90;75.00;;;;;;4947339;29;20429;-69
2022/03/01 10:22:52;;;;;;;8.90;3.30;;;6.60;74.30;;;;;;4924030;28;20443;-78
2022/03/01 10:25:21;;;;;;;8.47;4.00;;;6.60;74.20;;;;;;4906509;29;20471;-75
2022/03/01 10:27:49;;;;;;;7.70;4.03;;;5.60;77.80;;;;;;4937388;29;20421;-73
2022/03/01 10:30:32;;;;;;;7.83;3.60;;;6.00;78.50;;;;;;4957264;28;20418;-74
2022/03/01 10:33:13;;;;;;;8.00;4.00;;;6.30;76.00;;;;;;4957438;29;20407;-74
2022/03/01 10:35:57;;;;;;;5.13;3.63;;;6.20;76.30;;;;;;4957442;29;20466;-74
2022/03/01 10:38:24;;;;;;;7.63;3.97;;;5.90;75.50;;;;;;4957043;29;20409;-74
2022/03/01 10:40:57;;;;;;;5.53;3.00;;;5.80;77.10;;;;;;4957510;28;20457;-74
2022/03/01 10:43:25;;;;;;;5.33;3.77;;;5.90;76.80;;;;;;4957145;29;20454;-74
2022/03/01 10:45:51;;;;;;;7.40;4.70;;;6.10;77.40;;;;;;4957010;29;20446;-74
2022/03/01 10:48:31;;;;;;;4.67;3.50;;;5.80;77.10;;;;;;4956916;29;20453;-73
2022/03/01 10:51:03;;;;;;;3.73;2.90;;;5.70;77.20;;;;;;4957257;28;20454;-74
2022/03/01 10:53:31;;;;;;;4.57;3.00;;;5.90;76.90;;;;;;4957144;29;20449;-74
2022/03/01 10:56:01;;;;;;;5.40;3.73;;;5.90;77.10;;;;;;4956980;29;20797;-73
2022/03/01 10:58:27;;;;;;;6.67;4.00;;;5.90;77.00;;;;;;4956747;29;20458;-74
2022/03/01 11:00:53;;;;;;;11.80;4.80;;;5.90;77.70;;;;;;4939509;29;20509;-73
2022/03/01 11:03:18;;;;;;;8.60;4.73;;;5.90;77.70;;;;;;4956869;29;20462;-74
2022/03/01 11:05:44;;;;;;;10.53;4.60;;;5.60;76.50;;;;;;4956680;29;20205;-73
2022/03/01 11:08:12;;;;;;;7.77;4.30;;;5.60;78.30;;;;;;4932322;29;20183;-74
2022/03/01 11:10:39;;;;;;;6.33;4.10;;;5.70;80.20;;;;;;4938945;29;20195;-73
2022/03/01 11:13:06;;;;;;;5.93;3.10;;;6.10;77.50;;;;;;4956780;29;20506;-74
2022/03/01 11:16:06;;;;;;;5.67;3.47;;;6.40;76.80;;;;;;4961829;29;20421;-75
2022/03/01 11:18:50;;;;;;;7.97;4.13;;;6.50;76.10;;;;;;4946146;29;20414;-75
2022/03/01 11:21:17;;;;;;;5.73;3.67;;;6.40;75.90;;;;;;4956521;28;20430;-76
2022/03/01 11:23:43;;;;;;;6.00;3.47;;;6.40;76.00;;;;;;4939336;29;20466;-74
2022/03/01 11:26:12;;;;;;;11.90;4.63;;;6.30;76.00;;;;;;4925758;29;20470;-74
2022/03/01 11:28:41;;;;;;;5.80;3.63;;;6.40;75.20;;;;;;4931236;29;20472;-74
2022/03/01 11:31:24;;;;;;;13.27;4.70;;;6.30;75.90;;;;;;4940205;29;20442;-75
2022/03/01 11:34:01;;;;;;;11.10;4.77;;;5.70;75.80;;;;;;4955550;28;20450;-74
2022/03/01 11:36:32;;;;;;;5.20;3.37;;;6.20;76.60;;;;;;4931729;29;20442;-75
2022/03/01 11:39:12;;;;;;;5.40;4.00;;;6.60;76.30;;;;;;4935889;29;20471;-75
2022/03/01 11:41:49;;;;;;;6.77;4.10;;;6.50;74.40;;;;;;4937058;29;20534;-74
2022/03/01 11:44:23;;;;;;;4.70;3.47;;;6.50;75.80;;;;;;4937060;29;20875;-75
2022/03/01 11:46:50;;;;;;;5.80;3.53;;;6.60;74.90;;;;;;4919946;29;20412;-74
2022/03/01 11:49:19;;;;;;;5.63;3.30;;;6.50;76.00;;;;;;4936840;29;20523;-75
2022/03/01 11:51:55;;;;;;;11.97;5.60;;;6.60;73.80;;;;;;4936899;29;20432;-75
2022/03/01 11:54:40;;;;;;;7.30;3.53;;;6.60;72.90;;;;;;4937172;29;20783;-75
2022/03/01 11:57:07;;;;;;;7.47;3.50;;;6.60;73.70;;;;;;4951373;29;20863;-75
2022/03/01 11:59:38;;;;;;;5.80;3.10;;;7.10;72.20;;;;;;4955552;29;20431;-75
2022/03/01 12:02:07;;;;;;;5.90;3.73;;;6.70;71.40;;;;;;4955658;28;20971;-74
2022/03/01 12:04:32;;;;;;;5.37;3.00;;;7.00;71.00;;;;;;4938444;29;20560;-74
2022/03/01 12:06:58;;;;;;;5.77;3.50;;;6.80;70.10;;;;;;4955828;29;20443;-74
2022/03/01 12:09:27;;;;;;;7.47;3.30;;;6.60;70.70;;;;;;4955436;29;20175;-74
2022/03/01 12:12:07;;;;;;;5.57;3.40;;;6.70;69.50;;;;;;4938404;29;20431;-75
2022/03/01 12:14:34;;;;;;;4.40;3.20;;;6.50;69.20;;;;;;4955379;29;20421;-74
2022/03/01 12:17:15;;;;;;;6.17;3.37;;;6.80;67.40;;;;;;4938108;29;20446;-75
2022/03/01 12:19:41;;;;;;;2.67;2.10;;;7.10;69.60;;;;;;4955420;28;20419;-76
2022/03/01 12:22:06;;;;;;;5.60;2.70;;;7.30;68.70;;;;;;4955536;29;20802;-75
2022/03/01 12:24:32;;;;;;;4.97;2.80;;;7.00;69.80;;;;;;4955423;29;20270;-76
2022/03/01 12:27:01;;;;;;;4.40;2.83;;;6.70;68.10;;;;;;4938437;29;20655;-75
2022/03/01 12:29:29;;;;;;;4.60;2.47;;;6.70;67.70;;;;;;4955225;28;20629;-75
2022/03/01 12:32:00;;;;;;;4.37;2.50;;;6.90;67.60;;;;;;4955428;29;20460;-75
2022/03/01 12:34:28;;;;;;;7.50;2.93;;;6.60;67.90;;;;;;4955302;29;20414;-75
2022/03/01 12:36:56;;;;;;;4.00;2.10;;;6.70;67.90;;;;;;4940956;29;20430;-74
2022/03/01 12:39:23;;;;;;;3.93;2.50;;;6.70;67.40;;;;;;4931786;29;20419;-73
2022/03/01 12:41:49;;;;;;;3.57;2.40;;;6.90;66.80;;;;;;4922561;29;20459;-73
2022/03/01 12:44:17;;;;;;;3.30;2.10;;;6.90;65.10;;;;;;4939631;28;20458;-75
2022/03/01 12:46:43;;;;;;;3.50;2.40;;;7.00;66.00;;;;;;4955197;29;20762;-75
2022/03/01 12:49:12;;;;;;;4.53;2.53;;;7.10;66.00;;;;;;4954822;29;20478;-75
2022/03/01 12:51:39;;;;;;;3.23;2.20;;;7.40;65.10;;;;;;4935824;29;20206;-76
2022/03/01 12:54:10;;;;;;;2.37;2.10;;;7.60;65.00;;;;;;4947788;29;20426;-75
2022/03/01 12:56:36;;;;;;;5.27;2.43;;;7.50;64.30;;;;;;4954947;29;20541;-75
2022/03/01 12:59:14;;;;;;;5.43;2.53;;;7.20;63.60;;;;;;4937551;29;20437;-75
2022/03/01 13:01:43;;;;;;;2.73;2.10;;;7.10;63.80;;;;;;4937543;29;20458;-75
2022/03/01 13:04:09;;;;;;;4.97;2.47;;;7.00;65.30;;;;;;4954593;28;20466;-75
2022/03/01 13:06:36;;;;;;;5.90;2.57;;;7.00;65.00;;;;;;4954781;28;20425;-74
2022/03/01 13:09:03;;;;;;;3.53;2.60;;;7.10;65.20;;;;;;4954463;29;20497;-76
2022/03/01 13:11:29;;;;;;;3.80;2.30;;;7.30;64.60;;;;;;4955017;28;20920;-75
2022/03/01 13:13:56;;;;;;;4.27;2.63;;;7.20;63.90;;;;;;4937222;29;20494;-75
2022/03/01 13:16:29;;;;;;;4.27;2.77;;;7.20;65.40;;;;;;4954590;28;20171;-74
2022/03/01 13:18:57;;;;;;;5.07;2.60;;;7.30;65.50;;;;;;4937198;29;20930;-76
2022/03/01 13:21:31;;;;;;;4.60;3.10;;;7.30;65.10;;;;;;4954407;29;20922;-74
2022/03/01 13:24:05;;;;;;;6.97;2.77;;;7.40;65.30;;;;;;4937143;29;20466;-74
2022/03/01 13:26:30;;;;;;;3.23;2.33;;;7.50;66.70;;;;;;4937224;29;20423;-75
2022/03/01 13:29:18;;;;;;;4.90;2.70;;;7.40;63.50;;;;;;4954214;29;20458;-76
2022/03/01 13:31:45;;;;;;;2.30;2.10;;;7.40;63.50;;;;;;4954034;28;20281;-73
2022/03/01 13:34:13;;;;;;;5.50;3.57;;;7.30;63.20;;;;;;4954289;29;20446;-72
2022/03/01 13:36:40;;;;;;;5.17;2.67;;;7.20;63.80;;;;;;4954211;29;20446;-72
2022/03/01 13:39:13;;;;;;;19.30;9.47;;;7.40;62.40;;;;;;4954006;29;20577;-74
2022/03/01 13:42:12;;;;;;;8.77;4.43;;;7.70;64.00;;;;;;4928416;29;20612;-76
2022/03/01 13:44:43;;;;;;;7.13;5.00;;;7.80;62.90;;;;;;4895863;29;20467;-75
2022/03/01 13:47:28;;;;;;;5.63;2.90;;;7.50;63.10;;;;;;4936607;29;20425;-73
2022/03/01 13:50:21;;;;;;;3.70;3.23;;;7.50;62.30;;;;;;4953856;29;20896;-73
2022/03/01 13:52:52;;;;;;;3.97;2.87;;;7.40;64.40;;;;;;4935474;29;20411;-73
2022/03/01 13:55:24;;;;;;;7.03;3.37;;;7.50;62.90;;;;;;4954074;29;20461;-73
2022/03/01 13:57:52;;;;;;;5.50;3.60;;;7.30;63.50;;;;;;4953386;28;20463;-73
2022/03/01 14:00:29;;;;;;;6.40;4.00;;;7.50;63.80;;;;;;4953802;29;20762;-73
2022/03/01 14:02:57;;;;;;;4.63;3.60;;;7.70;62.40;;;;;;4953620;29;20462;-74
2022/03/01 14:05:24;;;;;;;8.80;3.70;;;7.90;62.40;;;;;;4949001;29;20454;-73
2022/03/01 14:08:00;;;;;;;6.43;3.70;;;7.70;62.40;;;;;;4953320;29;20427;-73
2022/03/01 14:10:28;;;;;;;5.23;3.90;;;7.50;62.90;;;;;;4953868;29;20949;-73
2022/03/01 14:13:05;;;;;;;4.27;3.33;;;7.70;64.10;;;;;;4953662;29;20506;-73
2022/03/01 14:15:36;;;;;;;4.90;3.77;;;7.50;61.90;;;;;;4934493;29;20411;-74
2022/03/01 14:18:03;;;;;;;4.27;2.83;;;7.80;61.70;;;;;;4951835;29;20976;-73
2022/03/01 14:20:29;;;;;;;4.80;2.90;;;7.90;61.80;;;;;;4954020;29;20415;-72
2022/03/01 14:22:56;;;;;;;9.63;3.27;;;7.90;60.20;;;;;;4952909;29;20526;-73
2022/03/01 14:25:22;;;;;;;4.23;3.03;;;7.80;59.20;;;;;;4946788;29;20829;-74
2022/03/01 14:27:47;;;;;;;4.27;3.27;;;7.60;60.00;;;;;;4949430;29;20423;-74
2022/03/01 14:30:13;;;;;;;5.87;3.10;;;7.50;60.00;;;;;;4946812;28;20179;-74
2022/03/01 14:32:39;;;;;;;8.40;3.70;;;7.60;61.90;;;;;;4934726;29;20183;-75
2022/03/01 14:35:05;;;;;;;4.60;3.10;;;7.40;62.50;;;;;;4944400;29;20855;-74
2022/03/01 14:37:31;;;;;;;6.13;3.03;;;7.30;62.40;;;;;;4953173;29;20421;-74
2022/03/01 14:39:56;;;;;;;5.10;3.23;;;7.50;61.90;;;;;;4953421;29;20510;-73
2022/03/01 14:42:22;;;;;;;5.13;2.80;;;7.80;62.40;;;;;;4953566;29;20202;-74
2022/03/01 14:44:47;;;;;;;3.93;2.80;;;7.50;61.60;;;;;;4953607;29;20215;-74
2022/03/01 14:47:13;;;;;;;4.57;3.30;;;7.50;61.40;;;;;;4953494;29;20187;-74
2022/03/01 14:49:39;;;;;;;8.43;5.10;;;7.70;61.60;;;;;;4953184;29;20171;-74
2022/03/01 14:52:06;;;;;;;9.20;3.77;;;7.40;62.40;;;;;;4936363;29;20221;-74
2022/03/01 14:54:31;;;;;;;9.97;3.27;;;7.70;60.60;;;;;;4953412;29;20426;-74
2022/03/01 14:56:57;;;;;;;4.67;3.00;;;7.80;61.50;;;;;;4953438;29;20934;-74
2022/03/01 14:59:23;;;;;;;4.80;2.67;;;7.80;61.90;;;;;;4952802;29;20175;-74
2022/03/01 15:01:48;;;;;;;4.17;3.00;;;7.80;61.90;;;;;;4952907;29;20250;-75
2022/03/01 15:04:14;;;;;;;4.17;2.60;;;7.60;61.60;;;;;;4953005;29;20210;-73
2022/03/01 15:06:39;;;;;;;4.63;2.87;;;7.60;61.50;;;;;;4953412;29;20202;-74
2022/03/01 15:09:05;;;;;;;4.03;2.63;;;7.50;60.80;;;;;;4954157;28;20660;-74
2022/03/01 15:11:31;;;;;;;4.17;2.73;;;7.50;61.10;;;;;;4956829;29;20202;-74
2022/03/01 15:13:58;;;;;;;4.07;2.53;;;7.40;60.70;;;;;;4957088;29;20418;-74
2022/03/01 15:16:25;;;;;;;5.33;3.27;;;7.40;61.10;;;;;;4956908;29;20171;-74
2022/03/01 15:18:50;;;;;;;4.17;2.47;;;7.40;61.30;;;;;;4956267;29;20424;-74
2022/03/01 15:21:16;;;;;;;3.20;2.30;;;7.50;61.00;;;;;;4956728;29;20515;-74
2022/03/01 15:23:42;;;;;;;3.80;2.87;;;7.30;61.60;;;;;;4956601;29;20703;-74
2022/03/01 15:26:08;;;;;;;4.43;2.77;;;7.10;61.00;;;;;;4939442;29;20430;-74
2022/03/01 15:28:33;;;;;;;6.50;3.27;;;7.10;61.40;;;;;;4956133;29;20186;-75
2022/03/01 15:31:00;;;;;;;6.20;3.20;;;7.00;61.60;;;;;;4956459;29;20194;-74
2022/03/01 15:33:26;;;;;;;5.30;2.77;;;6.80;61.60;;;;;;4939341;29;20185;-74
2022/03/01 15:35:52;;;;;;;4.23;3.00;;;6.70;61.60;;;;;;4956532;29;20771;-74
2022/03/01 15:38:18;;;;;;;4.20;3.10;;;6.60;62.20;;;;;;4955785;29;20186;-74
2022/03/01 15:40:44;;;;;;;8.20;3.13;;;6.50;62.60;;;;;;4956443;29;20191;-74
2022/03/01 15:43:09;;;;;;;5.23;3.23;;;6.20;64.00;;;;;;4956383;29;20530;-73
2022/03/01 15:45:35;;;;;;;8.63;5.27;;;6.00;67.00;;;;;;4939101;29;20207;-74
2022/03/01 15:48:01;;;;;;;6.17;3.77;;;6.00;67.30;;;;;;4955776;29;20179;-73
2022/03/01 15:50:28;;;;;;;5.87;4.10;;;5.90;66.30;;;;;;4956223;29;20163;-74
2022/03/01 15:52:53;;;;;;;4.30;2.90;;;5.60;71.70;;;;;;4956283;29;20498;-74
2022/03/01 15:55:19;;;;;;;6.63;3.83;;;5.40;73.10;;;;;;4938944;29;20526;-74
2022/03/01 15:57:45;;;;;;;11.17;3.93;;;5.00;74.30;;;;;;4955384;29;20190;-73
2022/03/01 16:00:13;;;;;;;9.13;3.40;;;4.70;77.70;;;;;;4955158;28;20533;-75
2022/03/01 16:02:39;;;;;;;4.30;2.77;;;4.30;79.60;;;;;;4956063;29;20174;-74
2022/03/01 16:05:05;;;;;;;4.90;3.37;;;4.10;80.10;;;;;;4935318;29;20513;-74
2022/03/01 16:07:31;;;;;;;4.97;3.90;;;3.80;80.20;;;;;;4948508;29;20716;-75
2022/03/01 16:09:56;;;;;;;5.73;3.60;;;;;;;;;;4932256;29;20179;-75
2022/03/01 16:12:23;;;;;;;13.33;4.17;;;3.40;82.10;;;;;;4936727;29;20262;-76
2022/03/01 16:14:49;;;;;;;9.90;5.60;;;3.20;81.20;;;;;;4930958;29;20414;-75
2022/03/01 16:17:14;;;;;;;5.87;3.87;;;3.10;80.60;;;;;;4953796;29;20431;-75
2022/03/01 16:19:40;;;;;;;5.97;3.70;;;3.00;80.40;;;;;;4953917;28;20507;-75
2022/03/01 16:22:07;;;;;;;7.60;4.93;;;3.10;79.70;;;;;;4955139;29;20686;-75
2022/03/01 16:24:33;;;;;;;8.50;5.90;;;3.20;79.90;;;;;;4955642;29;20230;-75
2022/03/01 16:26:59;;;;;;;11.23;6.60;;;3.20;80.90;;;;;;4943849;29;20447;-75
2022/03/01 16:29:26;;;;;;;11.30;5.87;;;3.10;82.10;;;;;;4944521;29;20266;-76
2022/03/01 16:31:52;;;;;;;9.53;5.40;;;3.00;82.60;;;;;;4942504;29;20693;-76
2022/03/01 16:34:18;;;;;;;10.03;5.13;;;2.90;82.80;;;;;;4944502;29;20506;-74
2022/03/01 16:36:43;;;;;;;11.57;6.80;;;2.80;83.80;;;;;;4942315;29;20540;-75
2022/03/01 16:39:09;;;;;;;12.57;5.70;;;2.70;84.30;;;;;;4939167;29;20427;-75
2022/03/01 16:41:36;;;;;;;21.10;12.57;;;2.70;84.40;;;;;;4955532;28;20250;-75
2022/03/01 16:44:03;;;;;;;30.03;18.83;;;2.50;85.20;;;;;;4954759;29;20552;-75
2022/03/01 16:46:32;;;;;;;17.27;11.30;;;2.40;85.90;;;;;;4951661;29;20426;-75
2022/03/01 16:48:58;;;;;;;13.30;9.13;;;2.30;87.10;;;;;;4950942;29;20438;-75
2022/03/01 16:51:24;;;;;;;9.10;7.00;;;2.20;87.70;;;;;;4952533;29;20850;-75
2022/03/01 16:53:51;;;;;;;32.90;16.47;;;2.00;88.60;;;;;;4934087;29;20178;-74